createdAt,value
2019-02-14T00:00:52.091Z,-2.51
2019-02-14T00:03:57.253Z,-2.62
2019-02-14T00:07:02.409Z,-2.47
2019-02-14T00:10:07.735Z,-2.47
2019-02-14T00:13:12.882Z,-2.72
2019-02-14T00:16:18.013Z,-2.79
2019-02-14T00:19:23.174Z,-2.72
2019-02-14T00:22:28.331Z,-2.51
2019-02-14T00:25:33.481Z,-2.36
2019-02-14T00:28:38.956Z,-2.31
2019-02-14T00:31:44.178Z,-2.41
2019-02-14T00:34:49.329Z,-2.56
2019-02-14T00:37:54.518Z,-2.57
2019-02-14T00:40:59.617Z,-2.77
2019-02-14T00:44:04.788Z,-2.69
2019-02-14T00:47:09.930Z,-2.92
2019-02-14T00:50:15.061Z,-2.87
2019-02-14T00:53:20.215Z,-2.62
2019-02-14T00:56:26.498Z,-2.33
2019-02-14T00:59:32.728Z,-2.28
2019-02-14T01:02:37.863Z,-2.28
2019-02-14T01:05:42.996Z,-2.30
2019-02-14T01:08:48.176Z,-2.40
2019-02-14T01:11:53.337Z,-2.44
2019-02-14T01:14:58.504Z,-2.56
2019-02-14T01:18:03.652Z,-2.56
2019-02-14T01:21:08.778Z,-2.64
2019-02-14T01:24:13.894Z,-2.72
2019-02-14T01:27:19.043Z,-2.68
2019-02-14T01:30:24.154Z,-2.78
2019-02-14T01:33:29.270Z,-2.52
2019-02-14T01:36:34.563Z,-2.55
2019-02-14T01:39:39.708Z,-2.59
2019-02-14T01:42:44.958Z,-2.63
2019-02-14T01:45:50.131Z,-2.59
2019-02-14T01:48:55.338Z,-2.44
2019-02-14T01:52:01.528Z,-2.38
2019-02-14T01:55:06.724Z,-2.62
2019-02-14T01:58:11.907Z,-2.69
2019-02-14T02:01:17.063Z,-2.75
2019-02-14T02:04:22.214Z,-2.81
2019-02-14T02:07:27.325Z,-2.82
2019-02-14T02:10:32.508Z,-2.74
2019-02-14T02:13:37.591Z,-2.59
2019-02-14T02:16:42.726Z,-2.55
2019-02-14T02:19:47.896Z,-2.45
2019-02-14T02:22:53.089Z,-2.49
2019-02-14T02:25:58.169Z,-2.61
2019-02-14T02:29:03.342Z,-2.59
2019-02-14T02:32:08.518Z,-2.58
2019-02-14T02:35:13.646Z,-2.81
2019-02-14T02:38:19.910Z,-2.82
2019-02-14T02:41:25.028Z,-2.79
2019-02-14T02:44:30.304Z,-2.78
2019-02-14T02:47:35.445Z,-2.92
2019-02-14T02:50:40.753Z,-2.86
2019-02-14T02:53:45.934Z,-2.88
2019-02-14T02:56:51.128Z,-2.96
2019-02-14T02:59:56.254Z,-2.89
2019-02-14T03:03:01.359Z,-2.81
2019-02-14T03:06:10.561Z,-2.95
2019-02-14T03:09:13.351Z,-3.09
2019-02-14T03:12:18.604Z,-3.10
2019-02-14T03:15:23.713Z,-3.13
2019-02-14T03:18:28.864Z,-3.21
2019-02-14T03:21:34.008Z,-3.27
2019-02-14T03:24:39.180Z,-3.21
2019-02-14T03:27:44.396Z,-3.21
2019-02-14T03:30:49.579Z,-3.24
2019-02-14T03:33:54.727Z,-3.12
2019-02-14T03:36:59.886Z,-3.08
2019-02-14T03:40:05.679Z,-3.10
2019-02-14T03:43:10.804Z,-3.29
2019-02-14T03:46:15.956Z,-3.36
2019-02-14T03:49:21.071Z,-3.32
2019-02-14T03:52:26.235Z,-3.31
2019-02-14T03:55:31.318Z,-3.23
2019-02-14T03:58:36.515Z,-3.05
2019-02-14T04:01:41.587Z,-3.16
2019-02-14T04:04:46.735Z,-3.02
2019-02-14T04:07:51.783Z,-3.06
2019-02-14T04:10:56.957Z,-3.01
2019-02-14T04:14:02.164Z,-3.05
2019-02-14T04:17:07.254Z,-2.95
2019-02-14T04:20:12.707Z,-2.80
2019-02-14T04:23:17.885Z,-3.02
2019-02-14T04:26:22.958Z,-2.96
2019-02-14T04:29:28.177Z,-2.95
2019-02-14T04:32:33.247Z,-2.88
2019-02-14T04:35:38.377Z,-2.95
2019-02-14T04:38:43.523Z,-2.96
2019-02-14T04:41:48.681Z,-2.97
2019-02-14T04:44:53.877Z,-2.86
2019-02-14T04:47:58.966Z,-3.09
2019-02-14T04:51:04.267Z,-3.21
2019-02-14T04:54:09.417Z,-3.25
2019-02-14T04:57:14.596Z,-3.27
2019-02-14T05:00:19.728Z,-3.31
2019-02-14T05:03:24.985Z,-3.22
2019-02-14T05:06:31.201Z,-3.48
2019-02-14T05:09:36.391Z,-3.54
2019-02-14T05:12:41.538Z,-3.64
2019-02-14T05:15:46.686Z,-3.70
2019-02-14T05:18:51.833Z,-3.52
2019-02-14T05:21:56.982Z,-3.43
2019-02-14T05:25:02.102Z,-3.49
2019-02-14T05:28:07.215Z,-3.44
2019-02-14T05:31:12.360Z,-3.59
2019-02-14T05:34:17.518Z,-3.66
2019-02-14T05:37:22.720Z,-3.60
2019-02-14T05:40:27.933Z,-3.53
2019-02-14T05:43:33.037Z,-3.58
2019-02-14T05:46:38.177Z,-3.65
2019-02-14T05:49:43.292Z,-3.66
2019-02-14T05:52:48.436Z,-3.55
2019-02-14T05:55:53.632Z,-3.67
2019-02-14T05:58:58.814Z,-3.81
2019-02-14T06:02:04.013Z,-3.80
2019-02-14T06:05:09.588Z,-3.72
2019-02-14T06:08:14.744Z,-3.80
2019-02-14T06:11:19.843Z,-3.92
2019-02-14T06:14:24.993Z,-3.94
2019-02-14T06:17:30.173Z,-3.92
2019-02-14T06:20:35.344Z,-3.94
2019-02-14T06:23:40.487Z,-3.92
2019-02-14T06:26:45.692Z,-3.86
2019-02-14T06:29:50.861Z,-3.85
2019-02-14T06:32:57.082Z,-3.91
2019-02-14T06:36:02.211Z,-3.92
2019-02-14T06:39:07.554Z,-3.80
2019-02-14T06:42:12.721Z,-3.54
2019-02-14T06:45:17.867Z,-3.65
2019-02-14T06:48:23.119Z,-3.60
2019-02-14T06:51:28.262Z,-3.43
2019-02-14T06:54:33.438Z,-3.39
2019-02-14T06:57:38.599Z,-3.26
2019-02-14T07:00:43.803Z,-3.22
2019-02-14T07:03:48.931Z,-3.12
2019-02-14T07:06:54.080Z,-3.06
2019-02-14T07:09:59.178Z,-2.97
2019-02-14T07:13:04.377Z,-2.90
2019-02-14T07:16:09.728Z,-2.93
2019-02-14T07:19:14.873Z,-2.78
2019-02-14T07:22:20.103Z,-2.73
2019-02-14T07:25:25.313Z,-2.64
2019-02-14T07:28:30.511Z,-2.55
2019-02-14T07:31:35.677Z,-2.48
2019-02-14T07:34:40.809Z,-2.40
2019-02-14T07:37:45.972Z,-2.32
2019-02-14T07:40:51.132Z,-2.23
2019-02-14T07:43:56.290Z,-2.17
2019-02-14T07:47:01.503Z,-2.21
2019-02-14T07:50:07.217Z,-2.19
2019-02-14T07:53:12.371Z,-2.07
2019-02-14T07:56:17.579Z,-2.00
2019-02-14T07:59:22.871Z,-1.69
2019-02-14T08:02:28.126Z,-1.53
2019-02-14T08:05:33.265Z,-1.29
2019-02-14T08:08:38.434Z,-0.73
2019-02-14T08:11:43.659Z,-0.80
2019-02-14T08:14:48.864Z,-0.71
2019-02-14T08:17:54.046Z,-1.14
2019-02-14T08:20:59.222Z,-1.14
2019-02-14T08:24:04.421Z,-1.00
2019-02-14T08:27:09.514Z,-1.25
2019-02-14T08:30:15.854Z,-1.05
2019-02-14T08:33:21.003Z,-0.56
2019-02-14T08:36:26.185Z,-0.32
2019-02-14T08:39:31.459Z,-0.46
2019-02-14T08:42:36.600Z,-0.52
2019-02-14T08:45:41.763Z,-0.23
2019-02-14T08:48:46.918Z,0.18
2019-02-14T08:51:52.308Z,0.58
2019-02-14T08:54:57.531Z,0.62
2019-02-14T08:58:02.656Z,0.41
2019-02-14T09:01:08.862Z,0.92
2019-02-14T09:04:13.986Z,1.01
2019-02-14T09:07:19.184Z,0.82
2019-02-14T09:10:25.372Z,1.77
2019-02-14T09:13:30.492Z,1.50
2019-02-14T09:16:35.608Z,1.93
2019-02-14T09:19:41.867Z,2.18
2019-02-14T09:22:47.126Z,2.02
2019-02-14T09:25:52.309Z,1.79
2019-02-14T09:28:57.563Z,2.35
2019-02-14T09:32:02.750Z,2.27
2019-02-14T09:35:08.387Z,2.02
2019-02-14T09:38:13.610Z,1.75
2019-02-14T09:41:18.740Z,1.78
2019-02-14T09:44:23.981Z,1.99
2019-02-14T09:47:29.122Z,2.13
2019-02-14T09:50:34.268Z,1.78
2019-02-14T09:53:39.384Z,2.23
2019-02-14T09:56:44.559Z,2.32
2019-02-14T09:59:49.753Z,2.37
2019-02-14T10:02:54.913Z,2.55
2019-02-14T10:06:00.061Z,2.81
2019-02-14T10:09:07.827Z,3.27
2019-02-14T10:12:13.026Z,2.94
2019-02-14T10:15:18.186Z,2.86
2019-02-14T10:18:23.448Z,2.51
2019-02-14T10:21:28.635Z,2.68
2019-02-14T10:24:33.803Z,2.57
2019-02-14T10:27:39.006Z,2.91
2019-02-14T10:30:44.084Z,3.02
2019-02-14T10:33:49.270Z,3.16
2019-02-14T10:36:54.380Z,2.84
2019-02-14T10:39:59.615Z,3.05
2019-02-14T10:43:04.784Z,3.47
2019-02-14T10:46:09.984Z,3.42
2019-02-14T10:49:15.141Z,3.67
2019-02-14T10:52:20.305Z,3.47
2019-02-14T10:55:25.436Z,3.26
2019-02-14T10:58:30.573Z,3.47
2019-02-14T11:01:35.722Z,3.37
2019-02-14T11:04:40.874Z,3.81
2019-02-14T11:07:46.137Z,3.59
2019-02-14T11:10:51.294Z,3.69
2019-02-14T11:13:56.454Z,3.81
2019-02-14T11:17:01.723Z,3.97
2019-02-14T11:20:07.662Z,4.35
2019-02-14T11:23:12.828Z,4.49
2019-02-14T11:26:17.951Z,4.40
2019-02-14T11:29:23.075Z,4.54
2019-02-14T11:32:29.154Z,4.49
2019-02-14T11:35:34.383Z,4.11
2019-02-14T11:38:40.853Z,4.24
2019-02-14T11:41:46.136Z,4.17
2019-02-14T11:44:51.325Z,4.14
2019-02-14T11:47:56.460Z,4.31
2019-02-14T11:51:01.636Z,4.31
2019-02-14T11:54:06.770Z,4.66
2019-02-14T11:57:12.043Z,4.66
2019-02-14T12:00:20.998Z,4.86
2019-02-14T12:03:26.182Z,5.09
2019-02-14T12:06:31.355Z,5.42
2019-02-14T12:09:36.459Z,5.76
2019-02-14T12:12:41.558Z,5.40
2019-02-14T12:15:46.726Z,5.26
2019-02-14T12:18:51.917Z,5.79
2019-02-14T12:21:57.060Z,5.96
2019-02-14T12:25:02.246Z,6.25
2019-02-14T12:28:07.511Z,6.27
2019-02-14T12:31:12.641Z,6.27
2019-02-14T12:34:17.743Z,6.32
2019-02-14T12:37:22.885Z,6.46
2019-02-14T12:40:27.979Z,6.83
2019-02-14T12:43:33.253Z,6.88
2019-02-14T12:46:38.424Z,6.93
2019-02-14T12:49:43.553Z,6.96
2019-02-14T12:52:48.707Z,7.23
2019-02-14T12:55:53.923Z,7.00
2019-02-14T12:58:59.105Z,6.92
2019-02-14T13:02:07.462Z,6.98
2019-02-14T13:05:12.746Z,6.75
2019-02-14T13:08:18.063Z,7.04
2019-02-14T13:11:23.284Z,6.62
2019-02-14T13:14:28.513Z,6.52
2019-02-14T13:17:33.788Z,6.66
2019-02-14T13:20:38.983Z,7.07
2019-02-14T13:23:44.160Z,6.67
2019-02-14T13:26:49.340Z,6.27
2019-02-14T13:29:54.520Z,6.58
2019-02-14T13:32:59.648Z,7.15
2019-02-14T13:36:06.088Z,7.33
2019-02-14T13:39:11.767Z,7.24
2019-02-14T13:42:16.977Z,6.81
2019-02-14T13:45:23.371Z,7.49
2019-02-14T13:48:29.849Z,7.35
2019-02-14T13:51:35.128Z,7.44
2019-02-14T13:54:40.282Z,7.37
2019-02-14T13:57:46.666Z,7.32
2019-02-14T14:00:52.029Z,7.43
2019-02-14T14:03:57.201Z,7.67
2019-02-14T14:07:02.343Z,7.75
2019-02-14T14:10:08.223Z,8.00
2019-02-14T14:13:13.412Z,7.87
2019-02-14T14:16:18.793Z,8.15
2019-02-14T14:19:24.000Z,7.89
2019-02-14T14:22:29.170Z,8.41
2019-02-14T14:25:34.296Z,8.08
2019-02-14T14:28:39.836Z,8.07
2019-02-14T14:31:45.099Z,8.01
2019-02-14T14:34:50.415Z,8.18
2019-02-14T14:37:55.631Z,8.41
2019-02-14T14:41:00.794Z,8.56
2019-02-14T14:44:15.177Z,8.63
2019-02-14T14:47:22.427Z,8.77
2019-02-14T14:50:27.604Z,8.65
2019-02-14T14:53:32.844Z,8.25
2019-02-14T14:56:38.009Z,8.16
2019-02-14T14:59:43.124Z,8.19
2019-02-14T15:02:48.351Z,8.04
2019-02-14T15:05:53.553Z,7.89
2019-02-14T15:08:58.739Z,7.89
2019-02-14T15:12:03.795Z,7.54
2019-02-14T15:15:08.998Z,7.27
2019-02-14T15:18:14.277Z,7.19
2019-02-14T15:21:19.488Z,7.02
2019-02-14T15:24:24.679Z,6.78
2019-02-14T15:27:29.823Z,6.46
2019-02-14T15:30:35.007Z,6.21
2019-02-14T15:33:40.176Z,6.12
2019-02-14T15:36:46.889Z,6.11
2019-02-14T15:39:52.490Z,6.13
2019-02-14T15:42:57.653Z,5.96
2019-02-14T15:46:02.812Z,5.66
2019-02-14T15:49:07.983Z,5.42
2019-02-14T15:52:13.159Z,5.35
2019-02-14T15:55:19.440Z,5.14
2019-02-14T15:58:25.329Z,4.98
2019-02-14T16:01:30.528Z,4.98
2019-02-14T16:04:36.820Z,4.95
2019-02-14T16:07:42.124Z,4.80
2019-02-14T16:10:49.160Z,4.56
2019-02-14T16:13:54.985Z,4.32
2019-02-14T16:17:00.958Z,4.13
2019-02-14T16:20:06.476Z,4.06
2019-02-14T16:23:11.661Z,4.20
2019-02-14T16:26:17.215Z,4.14
2019-02-14T16:29:24.569Z,3.91
2019-02-14T16:32:29.388Z,3.67
2019-02-14T16:35:34.559Z,3.41
2019-02-14T16:38:39.745Z,3.26
2019-02-14T16:41:44.887Z,3.21
2019-02-14T16:44:50.127Z,3.02
2019-02-14T16:47:55.425Z,2.91
2019-02-14T16:51:00.612Z,2.95
2019-02-14T16:54:05.816Z,2.62
2019-02-14T16:57:11.179Z,2.47
2019-02-14T17:00:16.532Z,2.50
2019-02-14T17:03:21.786Z,2.53
2019-02-14T17:06:27.032Z,2.70
2019-02-14T17:09:32.253Z,2.52
2019-02-14T17:12:37.521Z,2.58
2019-02-14T17:15:42.697Z,2.45
2019-02-14T17:18:47.928Z,2.37
2019-02-14T17:21:53.968Z,2.10
2019-02-14T17:24:59.752Z,1.99
2019-02-14T17:28:05.052Z,1.88
2019-02-14T17:31:10.217Z,1.74
2019-02-14T17:34:15.609Z,1.59
2019-02-14T17:37:20.750Z,1.61
2019-02-14T17:40:25.892Z,1.55
2019-02-14T17:43:31.167Z,1.48
2019-02-14T17:46:36.392Z,1.44
2019-02-14T17:49:41.722Z,1.49
2019-02-14T17:52:47.016Z,1.44
2019-02-14T17:55:52.282Z,1.33
2019-02-14T17:58:57.495Z,1.16
2019-02-14T18:02:02.666Z,0.99
2019-02-14T18:05:08.595Z,1.00
2019-02-14T18:08:13.740Z,0.93
2019-02-14T18:11:18.992Z,0.85
2019-02-14T18:14:24.100Z,0.92
2019-02-14T18:17:29.294Z,0.79
2019-02-14T18:20:34.533Z,0.72
2019-02-14T18:23:39.745Z,0.95
2019-02-14T18:26:44.905Z,0.78
2019-02-14T18:29:50.128Z,0.88
2019-02-14T18:32:55.263Z,0.77
2019-02-14T18:36:00.564Z,0.49
2019-02-14T18:39:07.837Z,0.50
2019-02-14T18:42:13.177Z,0.60
2019-02-14T18:45:18.321Z,0.49
2019-02-14T18:48:24.661Z,0.24
2019-02-14T18:51:29.781Z,0.14
2019-02-14T18:54:34.953Z,0.05
2019-02-14T18:57:40.167Z,0.07
2019-02-14T19:00:45.443Z,-0.06
2019-02-14T19:03:50.645Z,0.12
2019-02-14T19:06:55.827Z,0.12
2019-02-14T19:10:01.097Z,0.10
2019-02-14T19:13:06.334Z,-0.05
2019-02-14T19:16:11.769Z,-0.12
2019-02-14T19:19:16.977Z,-0.12
2019-02-14T19:22:22.233Z,-0.27
2019-02-14T19:25:29.637Z,-0.41
2019-02-14T19:28:34.365Z,-0.43
2019-02-14T19:31:39.564Z,-0.47
2019-02-14T19:34:44.759Z,-0.46
2019-02-14T19:37:50.039Z,-0.66
2019-02-14T19:40:55.276Z,-0.60
2019-02-14T19:44:00.399Z,-0.52
2019-02-14T19:47:05.553Z,-0.49
2019-02-14T19:50:10.783Z,-0.54
2019-02-14T19:53:15.974Z,-0.67
2019-02-14T19:56:21.137Z,-0.74
2019-02-14T19:59:26.424Z,-0.80
2019-02-14T20:02:31.612Z,-0.83
2019-02-14T20:05:36.871Z,-0.94
2019-02-14T20:08:42.037Z,-1.02
2019-02-14T20:11:49.718Z,-1.09
2019-02-14T20:14:54.950Z,-1.05
2019-02-14T20:18:00.164Z,-1.02
2019-02-14T20:21:05.337Z,-1.06
2019-02-14T20:24:10.601Z,-1.17
2019-02-14T20:27:15.792Z,-1.13
2019-02-14T20:30:22.077Z,-1.21
2019-02-14T20:33:27.280Z,-1.24
2019-02-14T20:36:32.521Z,-1.05
2019-02-14T20:39:37.789Z,-0.99
2019-02-14T20:42:43.017Z,-0.99
2019-02-14T20:45:48.225Z,-1.00
2019-02-14T20:48:53.470Z,-1.07
2019-02-14T20:51:58.739Z,-1.10
2019-02-14T20:55:03.979Z,-0.90
2019-02-14T20:58:10.944Z,-0.83
2019-02-14T21:01:16.161Z,-0.88
2019-02-14T21:04:22.140Z,-0.86
2019-02-14T21:07:27.303Z,-1.09
2019-02-14T21:10:32.526Z,-1.16
2019-02-14T21:13:37.799Z,-1.35
2019-02-14T21:16:42.940Z,-1.25
2019-02-14T21:19:48.239Z,-1.34
2019-02-14T21:22:53.407Z,-1.36
2019-02-14T21:25:58.673Z,-1.48
2019-02-14T21:29:03.857Z,-1.32
2019-02-14T21:32:09.001Z,-1.41
2019-02-14T21:35:14.385Z,-1.34
2019-02-14T21:38:20.591Z,-1.42
2019-02-14T21:41:25.789Z,-1.53
2019-02-14T21:44:31.059Z,-1.55
2019-02-14T21:47:36.268Z,-1.56
2019-02-14T21:50:41.567Z,-1.57
2019-02-14T21:53:46.743Z,-1.65
2019-02-14T21:56:51.869Z,-1.61
2019-02-14T21:59:56.958Z,-1.63
2019-02-14T22:03:02.237Z,-1.76
2019-02-14T22:06:07.576Z,-1.61
2019-02-14T22:09:12.872Z,-1.55
2019-02-14T22:12:37.305Z,-1.65
2019-02-14T22:15:24.967Z,-1.47
2019-02-14T22:18:30.114Z,-1.51
2019-02-14T22:21:35.380Z,-1.58
2019-02-14T22:24:42.109Z,-1.68
2019-02-14T22:27:47.302Z,-1.80
2019-02-14T22:30:52.517Z,-1.95
2019-02-14T22:33:57.676Z,-1.96
2019-02-14T22:37:02.798Z,-1.81
2019-02-14T22:40:08.111Z,-1.98
2019-02-14T22:43:13.365Z,-2.14
2019-02-14T22:46:18.546Z,-2.22
2019-02-14T22:49:23.749Z,-2.28
2019-02-14T22:52:28.863Z,-2.29
2019-02-14T22:55:34.020Z,-2.29
2019-02-14T22:58:39.182Z,-2.33
2019-02-14T23:01:46.643Z,-2.25
2019-02-14T23:04:51.868Z,-2.33
2019-02-14T23:07:57.079Z,-2.38
2019-02-14T23:11:02.276Z,-2.37
2019-02-14T23:14:07.455Z,-2.42
2019-02-14T23:17:12.656Z,-2.33
2019-02-14T23:20:17.813Z,-2.37
2019-02-14T23:23:23.001Z,-2.34
2019-02-14T23:26:28.217Z,-2.43
2019-02-14T23:29:33.439Z,-2.40
2019-02-14T23:32:38.629Z,-2.56
2019-02-14T23:35:43.735Z,-2.61
2019-02-14T23:38:48.861Z,-2.53
2019-02-14T23:41:54.084Z,-2.50
2019-02-14T23:44:59.291Z,-2.61
2019-02-14T23:48:04.507Z,-2.64
2019-02-14T23:51:09.605Z,-2.75
2019-02-14T23:54:14.939Z,-2.75
2019-02-14T23:57:20.151Z,-2.59
